createdAt,value
2019-03-06T00:02:09.830Z,105.00
2019-03-06T00:04:40.394Z,104.77
2019-03-06T00:07:10.941Z,104.60
2019-03-06T00:09:41.492Z,105.73
2019-03-06T00:12:11.952Z,103.63
2019-03-06T00:14:42.889Z,106.10
2019-03-06T00:17:14.446Z,103.50
2019-03-06T00:19:45.425Z,102.93
2019-03-06T00:22:16.166Z,104.57
2019-03-06T00:24:46.957Z,103.27
2019-03-06T00:27:17.832Z,106.70
2019-03-06T00:29:48.518Z,104.53
2019-03-06T00:32:19.156Z,103.40
2019-03-06T00:34:53.622Z,104.47
2019-03-06T00:37:24.313Z,102.50
2019-03-06T00:40:03.733Z,103.43
2019-03-06T00:42:37.448Z,105.07
2019-03-06T00:45:10.078Z,104.27
2019-03-06T00:47:42.337Z,103.50
2019-03-06T00:50:13.993Z,103.50
2019-03-06T00:52:52.730Z,103.23
2019-03-06T00:55:25.425Z,101.70
2019-03-06T00:57:55.855Z,102.33
2019-03-06T01:00:27.022Z,103.27
2019-03-06T01:02:57.572Z,102.93
2019-03-06T01:05:28.481Z,100.70
2019-03-06T01:07:58.945Z,100.57
2019-03-06T01:10:29.553Z,100.83
2019-03-06T01:13:00.084Z,102.83
2019-03-06T01:15:30.701Z,103.30
2019-03-06T01:18:02.257Z,102.00
2019-03-06T01:20:32.718Z,101.87
2019-03-06T01:23:03.452Z,101.83
2019-03-06T01:25:33.958Z,100.17
2019-03-06T01:28:04.467Z,102.37
2019-03-06T01:30:35.044Z,101.10
2019-03-06T01:33:11.382Z,102.10
2019-03-06T01:36:00.856Z,99.90
2019-03-06T01:38:48.803Z,102.80
2019-03-06T01:41:28.477Z,100.67
2019-03-06T01:44:12.580Z,100.50
2019-03-06T01:46:43.073Z,102.20
2019-03-06T01:49:13.729Z,101.63
2019-03-06T01:51:44.229Z,102.83
2019-03-06T01:54:14.761Z,99.97
2019-03-06T01:56:45.169Z,100.00
2019-03-06T01:59:15.644Z,99.13
2019-03-06T02:01:46.148Z,99.60
2019-03-06T02:04:16.664Z,99.80
2019-03-06T02:06:48.674Z,99.23
2019-03-06T02:09:21.088Z,98.93
2019-03-06T02:11:51.621Z,99.17
2019-03-06T02:14:22.220Z,99.20
2019-03-06T02:16:52.901Z,99.73
2019-03-06T02:19:24.433Z,99.03
2019-03-06T02:21:55.011Z,98.80
2019-03-06T02:24:25.771Z,99.90
2019-03-06T02:26:56.325Z,99.20
2019-03-06T02:29:26.863Z,98.47
2019-03-06T02:31:57.318Z,97.90
2019-03-06T02:34:27.889Z,98.83
2019-03-06T02:36:58.342Z,99.57
2019-03-06T02:39:28.807Z,98.47
2019-03-06T02:41:59.407Z,99.47
2019-03-06T02:44:29.935Z,97.77
2019-03-06T02:47:00.572Z,97.90
2019-03-06T02:49:33.924Z,99.87
2019-03-06T02:52:04.503Z,98.83
2019-03-06T02:54:34.953Z,98.70
2019-03-06T02:57:05.539Z,98.63
2019-03-06T02:59:42.301Z,99.43
2019-03-06T03:02:31.677Z,97.60
2019-03-06T03:05:15.859Z,96.97
2019-03-06T03:07:48.051Z,99.23
2019-03-06T03:10:18.698Z,98.23
2019-03-06T03:12:49.145Z,97.47
2019-03-06T03:15:20.106Z,98.70
2019-03-06T03:17:50.549Z,98.63
2019-03-06T03:20:21.085Z,97.17
2019-03-06T03:22:51.746Z,98.53
2019-03-06T03:25:22.286Z,97.97
2019-03-06T03:27:52.727Z,99.20
2019-03-06T03:30:23.227Z,96.63
2019-03-06T03:32:53.716Z,98.73
2019-03-06T03:35:24.189Z,97.73
2019-03-06T03:37:54.798Z,99.17
2019-03-06T03:40:25.269Z,96.73
2019-03-06T03:42:56.176Z,97.90
2019-03-06T03:45:26.708Z,98.67
2019-03-06T03:47:57.156Z,98.77
2019-03-06T03:50:27.929Z,98.33
2019-03-06T03:52:58.438Z,97.20
2019-03-06T03:55:29.944Z,96.97
2019-03-06T03:58:00.404Z,96.17
2019-03-06T04:00:30.908Z,96.17
2019-03-06T04:03:01.473Z,97.07
2019-03-06T04:05:31.892Z,96.20
2019-03-06T04:08:02.373Z,97.43
2019-03-06T04:10:32.820Z,96.40
2019-03-06T04:13:03.633Z,96.77
2019-03-06T04:15:34.186Z,96.70
2019-03-06T04:18:04.684Z,96.97
2019-03-06T04:20:35.149Z,97.23
2019-03-06T04:23:05.749Z,96.00
2019-03-06T04:25:36.562Z,97.00
2019-03-06T04:28:07.077Z,96.60
2019-03-06T04:30:37.713Z,95.97
2019-03-06T04:33:08.437Z,96.13
2019-03-06T04:35:38.952Z,95.40
2019-03-06T04:38:09.357Z,95.93
2019-03-06T04:40:39.899Z,95.40
2019-03-06T04:43:10.324Z,95.53
2019-03-06T04:45:41.081Z,95.80
2019-03-06T04:48:11.913Z,97.60
2019-03-06T04:50:42.414Z,95.27
2019-03-06T04:53:12.918Z,95.20
2019-03-06T04:55:43.448Z,96.53
2019-03-06T04:58:13.882Z,95.87
2019-03-06T05:00:44.403Z,94.87
2019-03-06T05:03:14.837Z,95.77
2019-03-06T05:05:45.361Z,95.00
2019-03-06T05:08:15.819Z,94.43
2019-03-06T05:10:46.327Z,94.60
2019-03-06T05:13:17.156Z,94.93
2019-03-06T05:15:47.648Z,96.17
2019-03-06T05:18:43.686Z,96.27
2019-03-06T05:21:49.015Z,96.07
2019-03-06T05:24:25.603Z,96.73
2019-03-06T05:26:56.689Z,95.87
2019-03-06T05:29:28.908Z,93.77
2019-03-06T05:32:48.537Z,96.70
2019-03-06T05:35:50.300Z,97.10
2019-03-06T05:38:32.106Z,93.73
2019-03-06T05:41:02.634Z,96.60
2019-03-06T05:43:34.313Z,94.87
2019-03-06T05:46:05.219Z,94.47
2019-03-06T05:48:35.696Z,95.00
2019-03-06T05:51:06.189Z,94.43
2019-03-06T05:53:36.820Z,93.70
2019-03-06T05:56:07.315Z,94.30
2019-03-06T05:58:37.895Z,94.33
2019-03-06T06:01:08.352Z,93.90
2019-03-06T06:03:38.961Z,94.00
2019-03-06T06:06:10.712Z,93.03
2019-03-06T06:08:41.178Z,95.07
2019-03-06T06:11:11.616Z,94.50
2019-03-06T06:13:42.290Z,94.73
2019-03-06T06:16:12.957Z,90.73
2019-03-06T06:18:43.550Z,94.13
2019-03-06T06:21:32.914Z,90.97
2019-03-06T06:24:10.721Z,92.20
2019-03-06T06:26:41.165Z,93.97
2019-03-06T06:29:11.723Z,93.77
2019-03-06T06:31:43.388Z,93.63
2019-03-06T06:34:13.923Z,93.53
2019-03-06T06:36:44.614Z,93.50
2019-03-06T06:39:15.135Z,92.03
2019-03-06T06:41:45.645Z,90.47
2019-03-06T06:44:16.092Z,91.30
2019-03-06T06:46:46.557Z,93.10
2019-03-06T06:49:17.924Z,92.60
2019-03-06T06:52:16.209Z,91.60
2019-03-06T06:55:08.118Z,90.83
2019-03-06T06:58:31.156Z,92.70
2019-03-06T07:01:59.950Z,91.83
2019-03-06T07:04:58.212Z,91.63
2019-03-06T07:07:59.986Z,91.63
2019-03-06T07:10:49.437Z,90.30
2019-03-06T07:13:54.297Z,91.77
2019-03-06T07:16:42.936Z,89.23
2019-03-06T07:19:25.237Z,92.37
2019-03-06T07:22:26.730Z,89.93
2019-03-06T07:25:15.144Z,90.60
2019-03-06T07:27:53.439Z,90.47
2019-03-06T07:30:44.263Z,90.80
2019-03-06T07:33:36.733Z,89.23
2019-03-06T07:36:32.188Z,90.07
2019-03-06T07:39:16.437Z,91.77
2019-03-06T07:41:54.832Z,91.50
2019-03-06T07:44:47.121Z,89.90
2019-03-06T07:47:43.327Z,90.07
2019-03-06T07:50:34.950Z,89.13
2019-03-06T07:54:06.587Z,90.73
2019-03-06T07:56:43.313Z,90.30
2019-03-06T07:59:13.898Z,89.20
2019-03-06T08:01:47.969Z,90.20
2019-03-06T08:04:19.061Z,87.97
2019-03-06T08:06:55.367Z,90.90
2019-03-06T08:09:25.924Z,91.30
2019-03-06T08:12:14.113Z,90.40
2019-03-06T08:15:01.050Z,88.07
2019-03-06T08:17:47.118Z,89.80
2019-03-06T08:20:45.369Z,90.20
2019-03-06T08:23:33.822Z,86.70
2019-03-06T08:26:05.725Z,88.20
2019-03-06T08:28:36.349Z,89.00
2019-03-06T08:31:18.937Z,89.33
2019-03-06T08:33:49.499Z,88.60
2019-03-06T08:36:19.987Z,89.43
2019-03-06T08:38:50.546Z,88.60
2019-03-06T08:41:21.358Z,88.50
2019-03-06T08:43:51.916Z,90.43
2019-03-06T08:46:41.298Z,88.93
2019-03-06T08:49:29.434Z,89.30
2019-03-06T08:52:25.053Z,88.17
2019-03-06T08:55:13.450Z,91.13
2019-03-06T08:58:02.969Z,88.40
2019-03-06T09:01:01.635Z,89.77
2019-03-06T09:03:57.487Z,90.63
2019-03-06T09:06:40.284Z,89.03
2019-03-06T09:09:41.786Z,90.23
2019-03-06T09:12:31.181Z,89.17
2019-03-06T09:15:23.930Z,89.13
2019-03-06T09:18:25.306Z,88.07
2019-03-06T09:21:11.042Z,92.70
2019-03-06T09:24:15.917Z,91.63
2019-03-06T09:27:23.538Z,91.10
2019-03-06T09:30:19.698Z,92.03
2019-03-06T09:33:04.351Z,90.07
2019-03-06T09:35:56.832Z,88.20
2019-03-06T09:38:35.917Z,89.37
2019-03-06T09:41:34.556Z,90.47
2019-03-06T09:44:26.785Z,92.77
2019-03-06T09:47:15.182Z,92.03
2019-03-06T09:50:03.536Z,90.43
2019-03-06T09:52:53.015Z,91.33
2019-03-06T09:55:40.381Z,90.07
2019-03-06T09:58:29.449Z,90.83
2019-03-06T10:01:13.380Z,91.40
2019-03-06T10:04:01.116Z,92.60
2019-03-06T10:06:39.209Z,91.17
2019-03-06T10:09:29.317Z,91.70
2019-03-06T10:12:12.279Z,90.97
2019-03-06T10:14:51.044Z,91.53
2019-03-06T10:17:30.280Z,93.97
2019-03-06T10:20:04.853Z,93.63
2019-03-06T10:22:35.497Z,90.67
2019-03-06T10:25:07.834Z,93.70
2019-03-06T10:27:39.545Z,95.53
2019-03-06T10:30:13.492Z,93.10
2019-03-06T10:32:44.381Z,93.25
2019-03-06T10:35:16.456Z,94.80
2019-03-06T10:37:47.285Z,91.30
2019-03-06T10:40:18.233Z,91.65
2019-03-06T10:42:48.809Z,90.83
2019-03-06T10:45:20.017Z,92.05
2019-03-06T10:47:50.911Z,88.12
2019-03-06T10:50:26.706Z,93.00
2019-03-06T10:52:54.830Z,89.90
2019-03-06T10:55:25.484Z,87.65
2019-03-06T10:57:56.472Z,93.22
2019-03-06T11:00:30.124Z,94.70
2019-03-06T11:03:01.412Z,92.55
2019-03-06T11:05:33.723Z,88.10
2019-03-06T11:08:05.335Z,94.58
2019-03-06T11:10:37.537Z,89.30
2019-03-06T11:13:11.434Z,94.25
2019-03-06T11:15:42.133Z,91.10
2019-03-06T11:18:12.984Z,92.60
2019-03-06T11:20:44.417Z,94.50
2019-03-06T11:23:14.908Z,94.72
2019-03-06T11:25:46.368Z,95.65
2019-03-06T11:28:17.214Z,96.17
2019-03-06T11:30:51.472Z,94.87
2019-03-06T11:33:23.750Z,95.65
2019-03-06T11:35:56.605Z,96.20
2019-03-06T11:38:28.156Z,95.17
2019-03-06T11:40:58.900Z,98.20
2019-03-06T11:43:29.937Z,94.00
2019-03-06T11:46:00.493Z,97.08
2019-03-06T11:48:31.388Z,97.88
2019-03-06T11:51:01.941Z,100.62
2019-03-06T11:53:33.013Z,98.67
2019-03-06T11:56:03.833Z,105.70
2019-03-06T11:58:34.541Z,100.05
2019-03-06T12:01:12.648Z,102.95
2019-03-06T12:03:44.750Z,106.03
2019-03-06T12:06:15.453Z,104.92
2019-03-06T12:08:46.188Z,103.85
2019-03-06T12:11:17.897Z,103.60
2019-03-06T12:13:48.789Z,105.72
2019-03-06T12:16:20.505Z,104.27
2019-03-06T12:18:52.461Z,103.30
2019-03-06T12:21:23.027Z,109.22
2019-03-06T12:23:53.624Z,105.80
2019-03-06T12:26:24.346Z,106.52
2019-03-06T12:28:54.920Z,105.83
2019-03-06T12:31:25.661Z,103.20
2019-03-06T12:33:56.145Z,103.40
2019-03-06T12:36:26.771Z,105.70
2019-03-06T12:38:57.607Z,105.35
2019-03-06T12:41:28.090Z,107.60
2019-03-06T12:43:58.602Z,107.83
2019-03-06T12:46:29.876Z,105.00
2019-03-06T12:49:05.962Z,103.55
2019-03-06T12:51:37.929Z,108.50
2019-03-06T12:54:09.329Z,112.90
2019-03-06T12:56:39.933Z,107.12
2019-03-06T12:59:11.530Z,107.30
2019-03-06T13:01:42.018Z,108.37
2019-03-06T13:04:12.575Z,105.97
2019-03-06T13:06:43.119Z,108.30
2019-03-06T13:09:20.937Z,108.57
2019-03-06T13:11:51.463Z,109.83
2019-03-06T13:14:21.967Z,106.65
2019-03-06T13:16:53.171Z,110.72
2019-03-06T13:19:23.746Z,107.50
2019-03-06T13:21:54.209Z,110.15
2019-03-06T13:24:25.856Z,106.45
2019-03-06T13:26:58.018Z,112.03
2019-03-06T13:29:28.611Z,109.57
2019-03-06T13:31:59.177Z,107.43
2019-03-06T13:34:50.319Z,109.35
2019-03-06T13:37:15.309Z,111.35
2019-03-06T13:39:45.851Z,108.07
2019-03-06T13:42:16.416Z,107.87
2019-03-06T13:44:47.085Z,108.57
2019-03-06T13:47:17.613Z,108.32
2019-03-06T13:49:48.630Z,109.90
2019-03-06T13:52:19.949Z,106.43
2019-03-06T13:54:50.511Z,106.60
2019-03-06T13:57:21.153Z,110.75
2019-03-06T13:59:51.816Z,110.65
2019-03-06T14:02:22.483Z,112.40
2019-03-06T14:04:53.127Z,111.10
2019-03-06T14:07:23.898Z,110.42
2019-03-06T14:09:54.441Z,109.20
2019-03-06T14:12:25.189Z,107.75
2019-03-06T14:14:56.856Z,110.05
2019-03-06T14:17:27.716Z,108.47
2019-03-06T14:19:58.169Z,108.85
2019-03-06T14:22:28.793Z,109.92
2019-03-06T14:24:59.259Z,110.52
2019-03-06T14:27:31.288Z,108.27
2019-03-06T14:30:01.855Z,110.95
2019-03-06T14:32:34.429Z,108.10
2019-03-06T14:35:05.254Z,112.17
2019-03-06T14:37:36.089Z,110.88
2019-03-06T14:40:10.151Z,108.83
2019-03-06T14:42:42.425Z,111.22
2019-03-06T14:45:14.408Z,112.45
2019-03-06T14:47:45.354Z,108.67
2019-03-06T14:50:15.905Z,111.03
2019-03-06T14:52:46.477Z,114.75
2019-03-06T14:55:17.428Z,113.57
2019-03-06T14:57:51.912Z,110.70
2019-03-06T15:00:23.188Z,112.68
2019-03-06T15:02:53.808Z,113.20
2019-03-06T15:05:24.464Z,114.35
2019-03-06T15:07:55.303Z,111.50
2019-03-06T15:10:25.939Z,111.88
2019-03-06T15:12:56.502Z,113.17
2019-03-06T15:15:27.259Z,111.15
2019-03-06T15:17:57.820Z,112.68
2019-03-06T15:20:28.736Z,114.92
2019-03-06T15:23:00.368Z,112.37
2019-03-06T15:25:31.142Z,110.72
2019-03-06T15:28:01.669Z,114.90
2019-03-06T15:30:32.200Z,112.83
2019-03-06T15:33:03.025Z,109.67
2019-03-06T15:35:33.592Z,112.95
2019-03-06T15:38:05.652Z,115.32
2019-03-06T15:40:36.377Z,113.15
2019-03-06T15:43:11.385Z,112.50
2019-03-06T15:45:42.144Z,110.93
2019-03-06T15:48:12.871Z,109.92
2019-03-06T15:50:43.520Z,111.60
2019-03-06T15:53:24.119Z,112.95
2019-03-06T15:55:56.512Z,112.92
2019-03-06T15:58:27.034Z,112.60
2019-03-06T16:00:57.514Z,113.83
2019-03-06T16:03:28.110Z,119.82
2019-03-06T16:05:58.809Z,115.88
2019-03-06T16:08:29.612Z,111.50
2019-03-06T16:11:00.181Z,111.65
2019-03-06T16:13:30.654Z,108.95
2019-03-06T16:16:01.561Z,111.53
2019-03-06T16:18:32.261Z,109.90
2019-03-06T16:21:02.868Z,113.37
2019-03-06T16:23:33.441Z,110.20
2019-03-06T16:26:03.952Z,112.33
2019-03-06T16:28:34.606Z,111.27
2019-03-06T16:31:05.172Z,111.87
2019-03-06T16:33:35.820Z,110.90
2019-03-06T16:36:06.873Z,111.30
2019-03-06T16:38:37.612Z,111.13
2019-03-06T16:41:08.155Z,111.73
2019-03-06T16:43:38.884Z,109.40
2019-03-06T16:46:09.468Z,108.87
2019-03-06T16:48:40.120Z,111.83
2019-03-06T16:51:10.984Z,109.23
2019-03-06T16:53:44.029Z,108.53
2019-03-06T16:56:14.911Z,111.03
2019-03-06T16:58:46.131Z,114.20
2019-03-06T17:01:18.245Z,113.47
2019-03-06T17:03:49.794Z,111.57
2019-03-06T17:06:23.044Z,108.17
2019-03-06T17:08:53.662Z,110.53
2019-03-06T17:11:24.564Z,108.87
2019-03-06T17:13:55.745Z,108.30
2019-03-06T17:16:27.544Z,109.33
2019-03-06T17:18:58.119Z,110.20
2019-03-06T17:21:28.729Z,108.73
2019-03-06T17:23:59.729Z,108.87
2019-03-06T17:26:30.174Z,110.53
2019-03-06T17:29:10.616Z,110.10
2019-03-06T17:31:41.949Z,109.93
2019-03-06T17:34:12.488Z,110.00
2019-03-06T17:36:43.204Z,110.93
2019-03-06T17:39:15.194Z,111.23
2019-03-06T17:41:45.816Z,110.60
2019-03-06T17:44:16.630Z,110.07
2019-03-06T17:46:47.238Z,108.73
2019-03-06T17:49:17.807Z,110.53
2019-03-06T17:51:48.680Z,108.60
2019-03-06T17:54:19.382Z,111.03
2019-03-06T17:56:51.755Z,112.90
2019-03-06T17:59:22.773Z,111.37
2019-03-06T18:01:53.580Z,110.47
2019-03-06T18:04:25.140Z,109.47
2019-03-06T18:06:55.669Z,108.13
2019-03-06T18:09:26.356Z,110.17
2019-03-06T18:11:57.993Z,112.73
2019-03-06T18:14:28.957Z,113.33
2019-03-06T18:16:59.672Z,109.83
2019-03-06T18:19:31.386Z,109.87
2019-03-06T18:22:01.978Z,109.30
2019-03-06T18:24:35.073Z,110.53
2019-03-06T18:27:10.322Z,109.53
2019-03-06T18:29:41.053Z,110.00
2019-03-06T18:32:16.334Z,110.30
2019-03-06T18:34:47.002Z,109.80
2019-03-06T18:37:22.939Z,110.70
2019-03-06T18:39:53.772Z,110.40
2019-03-06T18:42:30.165Z,110.00
2019-03-06T18:45:22.655Z,111.37
2019-03-06T18:48:05.644Z,110.57
2019-03-06T18:50:38.997Z,111.03
2019-03-06T18:53:22.123Z,110.13
2019-03-06T18:56:08.802Z,111.03
2019-03-06T18:58:40.880Z,109.93
2019-03-06T19:01:20.485Z,112.40
2019-03-06T19:03:52.528Z,111.10
2019-03-06T19:06:23.114Z,110.97
2019-03-06T19:08:55.492Z,108.67
2019-03-06T19:11:28.192Z,111.77
2019-03-06T19:14:03.196Z,109.10
2019-03-06T19:16:34.521Z,113.47
2019-03-06T19:19:08.313Z,112.23
2019-03-06T19:21:41.096Z,108.63
2019-03-06T19:24:19.111Z,109.10
2019-03-06T19:26:49.796Z,111.17
2019-03-06T19:29:20.840Z,108.43
2019-03-06T19:31:53.487Z,108.67
2019-03-06T19:34:24.104Z,108.60
2019-03-06T19:36:57.660Z,109.77
2019-03-06T19:39:29.273Z,110.30
2019-03-06T19:42:03.416Z,108.93
2019-03-06T19:44:34.086Z,111.07
2019-03-06T19:47:05.089Z,109.40
2019-03-06T19:49:35.772Z,109.27
2019-03-06T19:52:14.946Z,111.77
2019-03-06T19:54:48.960Z,111.47
2019-03-06T19:57:23.627Z,108.00
2019-03-06T19:59:55.225Z,109.27
2019-03-06T20:02:25.726Z,110.57
2019-03-06T20:04:59.982Z,109.37
2019-03-06T20:07:30.978Z,109.90
2019-03-06T20:10:01.953Z,108.57
2019-03-06T20:12:34.145Z,108.60
2019-03-06T20:15:07.954Z,107.50
2019-03-06T20:17:41.961Z,109.10
2019-03-06T20:20:12.833Z,111.93
2019-03-06T20:22:44.414Z,107.30
2019-03-06T20:25:17.245Z,108.27
2019-03-06T20:27:48.129Z,109.23
2019-03-06T20:30:23.288Z,109.40
2019-03-06T20:32:56.992Z,108.40
2019-03-06T20:35:28.233Z,109.37
2019-03-06T20:38:02.228Z,108.37
2019-03-06T20:40:35.820Z,110.07
2019-03-06T20:43:06.599Z,107.90
2019-03-06T20:45:43.247Z,109.40
2019-03-06T20:48:16.757Z,109.87
2019-03-06T20:50:47.419Z,107.97
2019-03-06T20:53:19.573Z,109.63
2019-03-06T20:55:53.069Z,108.60
2019-03-06T20:58:25.708Z,110.30
2019-03-06T21:00:56.911Z,108.10
2019-03-06T21:03:50.274Z,107.13
2019-03-06T21:06:33.565Z,108.87
2019-03-06T21:09:00.220Z,106.93
2019-03-06T21:11:30.948Z,108.40
2019-03-06T21:14:02.686Z,106.97
2019-03-06T21:16:33.595Z,106.83
2019-03-06T21:19:09.583Z,108.67
2019-03-06T21:21:40.614Z,107.17
2019-03-06T21:24:11.248Z,107.57
2019-03-06T21:26:43.709Z,106.23
2019-03-06T21:29:14.564Z,109.17
2019-03-06T21:31:48.172Z,109.17
2019-03-06T21:34:18.766Z,107.40
2019-03-06T21:36:49.473Z,107.20
2019-03-06T21:39:25.050Z,106.70
2019-03-06T21:41:58.960Z,106.57
2019-03-06T21:44:29.718Z,108.77
2019-03-06T21:47:00.259Z,107.13
2019-03-06T21:49:31.904Z,105.03
2019-03-06T21:52:07.613Z,108.03
2019-03-06T21:54:38.647Z,107.83
2019-03-06T21:57:09.170Z,107.07
2019-03-06T21:59:42.669Z,108.07
2019-03-06T22:02:13.325Z,108.47
2019-03-06T22:04:45.664Z,107.90
2019-03-06T22:07:16.191Z,111.23
2019-03-06T22:09:46.770Z,107.00
2019-03-06T22:12:17.316Z,107.17
2019-03-06T22:14:47.984Z,107.47
2019-03-06T22:17:19.061Z,108.47
2019-03-06T22:19:49.611Z,106.73
2019-03-06T22:22:20.302Z,106.77
2019-03-06T22:24:50.765Z,108.43
2019-03-06T22:27:21.313Z,107.30
2019-03-06T22:29:52.144Z,107.40
2019-03-06T22:32:22.601Z,109.80
2019-03-06T22:34:53.202Z,105.93
2019-03-06T22:37:23.677Z,106.17
2019-03-06T22:39:55.466Z,108.13
2019-03-06T22:42:26.228Z,107.20
2019-03-06T22:44:57.062Z,106.80
2019-03-06T22:47:29.205Z,107.07
2019-03-06T22:49:59.682Z,106.10
2019-03-06T22:52:30.240Z,109.03
2019-03-06T22:55:02.203Z,106.37
2019-03-06T22:57:32.746Z,105.60
2019-03-06T23:00:03.353Z,107.43
2019-03-06T23:02:35.427Z,106.73
2019-03-06T23:05:06.250Z,107.10
2019-03-06T23:07:36.825Z,106.10
2019-03-06T23:10:07.952Z,106.53
2019-03-06T23:12:39.194Z,108.10
2019-03-06T23:15:10.862Z,106.33
2019-03-06T23:17:41.458Z,107.37
2019-03-06T23:20:12.087Z,111.17
2019-03-06T23:22:42.720Z,108.03
2019-03-06T23:25:13.260Z,105.57
2019-03-06T23:27:44.005Z,107.53
2019-03-06T23:30:14.866Z,107.73
2019-03-06T23:32:45.558Z,107.70
2019-03-06T23:35:17.128Z,106.67
2019-03-06T23:37:47.704Z,108.03
2019-03-06T23:40:18.147Z,107.00
2019-03-06T23:42:48.629Z,107.67
2019-03-06T23:45:19.234Z,106.50
2019-03-06T23:47:49.666Z,107.87
2019-03-06T23:50:20.125Z,108.37
2019-03-06T23:53:19.764Z,107.70
2019-03-06T23:55:50.318Z,106.20
2019-03-06T23:58:20.809Z,107.40
